KPIB

Hattiesburg / Laurel Regional Airport

Hattiesburg-Laurel, Mississippi, USA
METAR KPIB 180039Z AUTO 02008KT 10SM SCT012 OVC026 18/17 A3027 RMK AO2
Observed Flight Rules
Oct-18 @ 00:39 UTC (17 minutes ago) Marginal Visual Flight Rules
Wind Visibility Clouds
20° at 8 knots 10 miles
  • Scattered at 1,200' AGL
  • Overcast at 2,600' AGL
Temperatures Readings
Current 18°C / 64°F
Dewpoint 17°C / 63°F
Humidity 94%
Altimeter 30.27" Hg
Pressure 1025 hPa
Elevation 91
METAR KPIB 180039Z AUTO 02008KT 10SM SCT012 OVC026 18/17 A3027 RMK AO2
Observed Flight Rules
Oct-18 @ 00:39 UTC
(17 minutes ago)
MVFR
Wind Visibility
20° at 8 knots 10 miles
Clouds
  • Scattered at 1,200' AGL
  • Overcast at 2,600' AGL
Temperature Dewpoint
18°C / 64°F 17°C / 63°F
Humidity Altimeter Pressure
94% 30.27" Hg 1025 hPa